Flight Track Log - Related Links

Times and Time Zones

All times are in EDT time to prevent confusion due to time zone crossing. See the N851MA flight status page for this flight to view local times or setup timezone preferences in your user account.

Time Position Orientation Groundspeed Altitude Reporting Facility
EDT Latitude Longitude Course Direction KTS MPH feet Rate Location/Type
Wed 03:55:22 PM 41.1039 -100.6600 91° East 177 204 4,800  Level Denver Center
Wed 03:56:24 PM 41.1033 -100.5886 91° East 199 229 5,400 720 Climbing Denver Center
Wed 03:57:27 PM 41.1072 -100.5014 87° East 205 236 6,300 1,008 Climbing Denver Center
Wed 03:58:29 PM 41.1089 -100.4256 88° East 214 246 7,500 1,452 Climbing Denver Center
Wed 03:59:31 PM 41.1108 -100.3533 88° East 209 241 9,300 1,588 Climbing Denver Center
Wed 04:00:45 PM 41.1097 -100.2731 91° East 199 229 11,100 1,632 Climbing Denver Center
Wed 04:01:47 PM 41.1186 -100.1808 83° East 198 228 13,000 1,694 Climbing Denver Center
Wed 04:02:49 PM 41.1217 -100.1036 87° East 214 246 14,600 1,645 Climbing Denver Center
Wed 04:03:51 PM 41.1186 -100.0136 93° East 217 250 16,400 1,548 Climbing Denver Center
Wed 04:04:53 PM 41.1208 -99.9303 88° East 229 264 17,800 1,548 Climbing Denver Center
Wed 04:05:55 PM 41.1181 -99.8322 92° East 236 272 19,600 1,645 Climbing Denver Center
Wed 04:06:57 PM 41.1181 -99.7444 90° East 245 282 21,200 1,452 Climbing Denver Center
Wed 04:07:59 PM 41.1167 -99.6556 91° East 250 288 22,600 1,452 Climbing Denver Center
Wed 04:09:01 PM 41.1158 -99.5481 91° East 257 296 24,200 1,452 Climbing Denver Center
Wed 04:10:03 PM 41.1136 -99.4428 92° East 263 303 25,600 1,258 Climbing Denver Center
Wed 04:11:05 PM 41.1133 -99.3414 90° East 270 311 26,800 1,065 Climbing Denver Center
Wed 04:12:07 PM 41.1103 -99.2394 92° East 274 315 27,800 968 Climbing Denver Center
Wed 04:13:09 PM 41.1097 -99.1356 90° East 280 322 28,800 823 Climbing Denver Center
Wed 04:14:11 PM 41.1081 -99.0272 91° East 280 322 29,500 726 Climbing Denver Center
Wed 04:15:13 PM 41.1053 -98.9067 92° East 289 333 30,300 629 Climbing Denver Center
Wed 04:16:15 PM 41.1039 -98.8003 91° East 296 341 30,800 339 Climbing Denver Center
Wed 04:17:17 PM 41.1025 -98.6853 91° East 306 352 31,000 97 Climbing Denver Center
Wed 04:18:19 PM 41.0992 -98.5628 92° East 326 375 31,000  Level Denver Center
Wed 04:19:21 PM 41.0975 -98.4356 91° East 341 392 31,000  Level Denver Center
Wed 04:20:49 PM 41.0931 -98.2278 92° East 351 404 31,000  Level Minneapolis Center
Wed 04:21:51 PM 41.0906 -98.0958 91° East 354 407 31,000  Level Minneapolis Center
Wed 04:22:53 PM 41.0864 -97.9650 92° East 354 407 31,000  Level Minneapolis Center
Wed 04:23:55 PM 41.0836 -97.8336 92° East 354 407 31,000  Level Minneapolis Center
Wed 04:24:57 PM 41.0803 -97.7044 92° East 354 407 31,000  Level Minneapolis Center
Wed 04:25:59 PM 41.0750 -97.5736 93° East 354 407 31,000  Level Minneapolis Center
Wed 04:27:00 PM 41.0714 -97.4181 92° East 354 407 31,000  Level Minneapolis Center
Wed 04:28:02 PM 41.0686 -97.3019 92° East 354 407 31,000  Level Minneapolis Center
Wed 04:29:04 PM 41.0639 -97.1731 93° East 354 407 31,000  Level Minneapolis Center
Wed 04:30:06 PM 41.0603 -97.0186 92° East 353 406 31,000  Level Minneapolis Center
Wed 04:31:08 PM 41.0544 -96.8894 93° East 353 406 31,000  Level Minneapolis Center
Wed 04:32:11 PM 41.0503 -96.7608 92° East 353 406 31,000  Level Minneapolis Center
Wed 04:33:13 PM 41.0458 -96.6322 93° East 352 405 31,000  Level Minneapolis Center
Wed 04:34:15 PM 41.0422 -96.5047 92° East 352 405 31,000  Level Minneapolis Center
Wed 04:35:17 PM 41.0358 -96.3767 94° East 352 405 31,000  Level Minneapolis Center
Wed 04:36:19 PM 41.0294 -96.2225 93° East 352 405 31,000  Level Minneapolis Center
Wed 04:37:21 PM 41.0250 -96.0942 93° East 352 405 31,000  Level Minneapolis Center
Wed 04:38:23 PM 41.0206 -95.9661 93° East 352 405 31,000  Level Minneapolis Center
Wed 04:39:25 PM 41.0147 -95.8369 93° East 352 405 31,000  Level Minneapolis Center
Wed 04:40:27 PM 41.0081 -95.6797 93° East 355 409 31,000  Level Minneapolis Center
Wed 04:41:29 PM 41.0017 -95.5486 94° East 355 409 31,000  Level Minneapolis Center
Wed 04:42:31 PM 40.9950 -95.4164 94° East 357 411 31,000  Level Minneapolis Center
Wed 04:43:34 PM 40.9886 -95.2839 94° East 358 412 31,000  Level Minneapolis Center
Wed 04:44:36 PM 40.9822 -95.1497 94° East 362 417 31,000  Level Minneapolis Center
Wed 04:45:38 PM 40.9742 -95.0139 94° East 366 421 31,000  Level Minneapolis Center
Wed 04:46:40 PM 40.9672 -94.8506 93° East 367 422 31,000  Level Minneapolis Center
Wed 04:47:42 PM 40.9594 -94.7139 94° East 368 423 31,000  Level Minneapolis Center
Wed 04:48:44 PM 40.9511 -94.5772 95° East 371 427 31,000  Level Minneapolis Center
Wed 04:49:46 PM 40.9436 -94.4364 94° East 374 430 31,000  Level Minneapolis Center
Wed 04:50:48 PM 40.9361 -94.2969 94° East 379 436 31,000  Level Minneapolis Center
Wed 04:51:50 PM 40.9264 -94.1572 95° East 379 436 31,000  Level Minneapolis Center
Wed 04:52:52 PM 40.9169 -93.9892 94° East 380 437 31,000  Level Minneapolis Center
Wed 04:53:55 PM 40.9078 -93.8497 95° East 380 437 31,000  Level Minneapolis Center
Wed 04:54:57 PM 40.8989 -93.7081 95° East 384 442 31,000  Level Minneapolis Center
Wed 04:55:59 PM 40.8908 -93.5686 94° East 384 442 31,000  Level Minneapolis Center
Wed 04:57:01 PM 40.8831 -93.4275 94° East 384 442 31,000  Level Minneapolis Center
Wed 04:58:06 PM 40.8719 -93.2583 95° East 385 443 31,000  Level Chicago Center
Wed 04:59:08 PM 40.8617 -93.1192 96° East 383 441 31,000  Level Chicago Center
Wed 05:00:10 PM 40.8544 -92.9825 94° East 376 433 31,000  Level Chicago Center
Wed 05:01:12 PM 40.8450 -92.8439 95° East 379 436 31,000  Level Chicago Center
Wed 05:02:14 PM 40.8317 -92.6797 96° East 375 432 31,000  Level Chicago Center
Wed 05:02:52 PM 40.8258 -92.5981 95° East 374 430 31,000  Level Chicago Center
Wed 05:03:54 PM 40.8175 -92.4586 94° East 378 435 31,000  Level Chicago Center
Wed 05:04:56 PM 40.8069 -92.3214 96° East 377 434 31,000  Level Chicago Center
Wed 05:05:58 PM 40.7969 -92.1847 95° East 376 433 31,000  Level Chicago Center
Wed 05:07:00 PM 40.7864 -92.0486 96° East 375 432 31,000  Level Chicago Center
Wed 05:08:02 PM 40.7758 -91.9106 96° East 377 434 31,000  Level Chicago Center
Wed 05:09:04 PM 40.7631 -91.7456 96° East 378 435 31,000  Level Chicago Center
Wed 05:10:06 PM 40.7522 -91.6072 96° East 381 438 31,000  Level Chicago Center
Wed 05:11:08 PM 40.7400 -91.4672 97° East 383 441 31,000  Level Chicago Center
Wed 05:12:11 PM 40.7294 -91.3294 96° East 381 438 31,000  Level Chicago Center
Wed 05:13:13 PM 40.7175 -91.1736 96° East 385 443 31,000  Level Chicago Center
Wed 05:14:15 PM 40.7044 -91.0347 97° East 382 440 31,000  Level Chicago Center
Wed 05:15:17 PM 40.6936 -90.8953 96° East 384 442 31,000  Level Chicago Center
Wed 05:16:19 PM 40.6811 -90.7553 97° East 385 443 31,000  Level Chicago Center
Wed 05:17:21 PM 40.6683 -90.6158 97° East 385 443 31,000  Level Chicago Center
Wed 05:18:23 PM 40.6517 -90.4483 97° East 386 444 31,000  Level Chicago Center
Wed 05:19:25 PM 40.6394 -90.3092 97° East 385 443 31,000  Level Chicago Center
Wed 05:20:27 PM 40.6261 -90.1531 96° East 385 443 31,000  Level Chicago Center
Wed 05:21:29 PM 40.6117 -90.0147 98° East 385 443 31,000  Level Chicago Center
Wed 05:22:31 PM 40.5992 -89.8756 97° East 386 444 31,000  Level Chicago Center
Wed 05:23:34 PM 40.5861 -89.7372 97° East 383 441 31,000  Level Chicago Center
Wed 05:24:36 PM 40.5717 -89.6003 98° East 382 440 31,000  Level Chicago Center
Wed 05:25:38 PM 40.5575 -89.4558 97° East 384 442 31,000  Level Chicago Center
Wed 05:26:40 PM 40.5447 -89.3169 97° East 385 443 31,000  Level Chicago Center
Wed 05:27:42 PM 40.5272 -89.1489 98° East 387 445 31,000  Level Chicago Center
Wed 05:28:44 PM 40.5131 -89.0122 98° East 382 440 31,000  Level Chicago Center
Wed 05:29:46 PM 40.4978 -88.8725 98° East 386 444 31,000  Level Chicago Center
Wed 05:30:48 PM 40.4825 -88.7181 97° East 382 440 31,000  Level Chicago Center
Wed 05:31:50 PM 40.4678 -88.5800 98° East 384 442 31,000  Level Chicago Center
Wed 05:32:53 PM 40.4525 -88.4408 98° East 386 444 31,000  Level Chicago Center
Wed 05:33:55 PM 40.4375 -88.3022 98° East 388 447 31,000  Level Chicago Center
Wed 05:34:57 PM 40.4228 -88.1631 98° East 389 448 31,000 -145 Level Chicago Center
Wed 05:35:59 PM 40.4042 -87.9956 98° East 391 450 30,700 -774 Descending Chicago Center
Wed 05:37:01 PM 40.3850 -87.8503 100° East 407 468 29,400 -1,258 Descending Chicago Center
Wed 05:38:03 PM 40.3703 -87.6986 97° East 420 483 28,100 -1,306 Descending Chicago Center
Wed 05:39:05 PM 40.3550 -87.5486 98° East 419 482 26,700 -1,597 Descending Chicago Center
Wed 05:40:07 PM 40.3344 -87.3875 99° East 411 473 24,800 -1,790 Descending Chicago Center
Wed 05:41:09 PM 40.3156 -87.2419 100° East 406 467 23,000 -1,645 Descending Chicago Center
Wed 05:42:11 PM 40.2972 -87.1014 100° East 396 456 21,400 -1,680 Descending Chicago Center
Wed 05:43:14 PM 40.2836 -86.9689 98° East 373 429 19,500 -2,016 Descending Chicago Center
Wed 05:44:16 PM 40.2619 -86.8192 101° East 353 406 17,200 -2,108 Descending Chicago Center
Wed 05:44:28 PM 40.2589 -86.7950 99° East 350 403 16,900 -1,541 Descending Chicago Center
Wed 05:45:30 PM 40.2469 -86.6808 98° East 321 369 15,300 -1,548 Descending Chicago Center
Wed 05:46:32 PM 40.2314 -86.5714 101° East 309 356 13,700 -1,548 Descending Chicago Center
Wed 05:47:34 PM 40.2178 -86.4669 100° East 295 339 12,100 -1,344 Descending Chicago Center
Wed 05:48:37 PM 40.2058 -86.3672 99° East 281 323 10,900 -1,200 Descending Chicago Center
Wed 05:49:39 PM 40.1950 -86.2733 99° East 266 306 9,600 -1,403 Descending Chicago Center
Wed 05:50:41 PM 40.1817 -86.1628 99° East 259 298 8,000 -1,355 Descending Chicago Center
Wed 05:51:43 PM 40.1689 -86.0733 101° East 253 291 6,800 -1,113 Descending Chicago Center
Wed 05:52:45 PM 40.1547 -85.9847 102° East 250 288 5,700 -1,065 Descending Chicago Center
Wed 05:53:47 PM 40.1308 -85.9003 110° East 248 285 4,600 -823 Descending Chicago Center
Wed 05:54:49 PM 40.1039 -85.8217 114° Southeast 243 280 4,000 -290 Descending Chicago Center
Wed 05:55:51 PM 40.0781 -85.7547 117° Southeast 227 261 4,000 -242 Level Chicago Center
Wed 05:56:53 PM 40.0553 -85.6906 115° Southeast 210 242 3,500 -484 Descending Chicago Center
Wed 05:57:55 PM 40.0228 -85.6078 117° Southeast 208 239 3,000 -400 Descending Chicago Center
Wed 05:58:08 PM 40.0175 -85.5950 118° Southeast 208 239 3,000  Level Chicago Center
Wed 05:59:12 PM 39.9931 -85.5306 116° Southeast 205 236 3,000  Level Chicago Center
Wed 06:00:14 PM 39.9681 -85.4622 116° Southeast 200 230 3,000 46 Level Chicago Center
Wed 06:01:23 PM 40.0219 -85.4261 27° Northeast 181 208 3,100 46 Climbing Indianapolis Center
Wed 06:02:25 PM 40.0481 -85.4442 332° Northwest 155 178 3,100 -96 Level Indianapolis Center
Wed 06:03:28 PM 40.0597 -85.4800 293° West 125 144 2,900 -192 Descending Indianapolis Center
Wed 06:04:30 PM 40.0711 -85.5117 295° West 108 124 2,700 -435 Descending Indianapolis Center
Wed 06:05:32 PM 40.0850 -85.5472 297° West 99 114 2,000 -435 Descending Indianapolis Center
Wed 06:06:34 PM 40.0944 -85.5711 297° West 87 100 1,800 -194 Descending Indianapolis Center
Wed 06:07:36 PM 40.1022 -85.5911 297° West 84 97 1,600 -194 Descending Indianapolis Center

Login

Don't have an account? Register now (free) for customized features, flight alerts, and more!